sensor_id;sensor_type;location;lat;lon;timestamp;P1;durP1;ratioP1;P2;durP2;ratioP2
5912;SDS011;2982;42.684;23.356;2023-10-08T00:00:26;8.90;;;3.90;;
5912;SDS011;2982;42.684;23.356;2023-10-08T00:02:51;6.82;;;3.28;;
5912;SDS011;2982;42.684;23.356;2023-10-08T00:05:17;5.63;;;3.60;;
5912;SDS011;2982;42.684;23.356;2023-10-08T00:07:42;7.18;;;3.72;;
5912;SDS011;2982;42.684;23.356;2023-10-08T00:10:08;7.88;;;3.95;;
5912;SDS011;2982;42.684;23.356;2023-10-08T00:12:34;6.55;;;3.72;;
5912;SDS011;2982;42.684;23.356;2023-10-08T00:14:59;6.15;;;3.35;;
5912;SDS011;2982;42.684;23.356;2023-10-08T00:17:25;6.07;;;3.40;;
5912;SDS011;2982;42.684;23.356;2023-10-08T00:19:50;4.53;;;4.10;;
5912;SDS011;2982;42.684;23.356;2023-10-08T00:22:16;5.15;;;3.53;;
5912;SDS011;2982;42.684;23.356;2023-10-08T00:24:41;7.60;;;3.88;;
5912;SDS011;2982;42.684;23.356;2023-10-08T00:27:07;5.20;;;4.20;;
5912;SDS011;2982;42.684;23.356;2023-10-08T00:29:33;8.77;;;4.10;;
5912;SDS011;2982;42.684;23.356;2023-10-08T00:31:59;5.80;;;3.67;;
5912;SDS011;2982;42.684;23.356;2023-10-08T00:34:25;4.65;;;3.88;;
5912;SDS011;2982;42.684;23.356;2023-10-08T00:36:50;4.05;;;2.67;;
5912;SDS011;2982;42.684;23.356;2023-10-08T00:39:16;4.35;;;3.72;;
5912;SDS011;2982;42.684;23.356;2023-10-08T00:41:42;5.22;;;4.30;;
5912;SDS011;2982;42.684;23.356;2023-10-08T00:44:09;7.65;;;4.03;;
5912;SDS011;2982;42.684;23.356;2023-10-08T00:46:36;5.15;;;4.13;;
5912;SDS011;2982;42.684;23.356;2023-10-08T00:49:01;4.97;;;3.85;;
5912;SDS011;2982;42.684;23.356;2023-10-08T00:51:27;6.55;;;3.55;;
5912;SDS011;2982;42.684;23.356;2023-10-08T00:54:00;5.78;;;3.65;;
5912;SDS011;2982;42.684;23.356;2023-10-08T00:56:30;5.13;;;3.80;;
5912;SDS011;2982;42.684;23.356;2023-10-08T00:58:55;5.22;;;3.40;;
5912;SDS011;2982;42.684;23.356;2023-10-08T01:01:24;11.70;;;3.90;;
5912;SDS011;2982;42.684;23.356;2023-10-08T01:04:07;6.13;;;3.38;;
5912;SDS011;2982;42.684;23.356;2023-10-08T01:06:39;6.93;;;3.30;;
5912;SDS011;2982;42.684;23.356;2023-10-08T01:09:05;5.70;;;3.88;;
5912;SDS011;2982;42.684;23.356;2023-10-08T01:11:31;9.10;;;4.63;;
5912;SDS011;2982;42.684;23.356;2023-10-08T01:13:56;5.03;;;3.83;;
5912;SDS011;2982;42.684;23.356;2023-10-08T01:16:22;7.07;;;3.80;;
5912;SDS011;2982;42.684;23.356;2023-10-08T01:18:47;3.65;;;3.35;;
5912;SDS011;2982;42.684;23.356;2023-10-08T01:21:12;3.90;;;3.60;;
5912;SDS011;2982;42.684;23.356;2023-10-08T01:23:38;4.90;;;2.90;;
5912;SDS011;2982;42.684;23.356;2023-10-08T01:26:03;7.00;;;4.22;;
5912;SDS011;2982;42.684;23.356;2023-10-08T01:28:29;4.70;;;3.28;;
5912;SDS011;2982;42.684;23.356;2023-10-08T01:30:56;3.70;;;3.25;;
5912;SDS011;2982;42.684;23.356;2023-10-08T01:33:22;9.48;;;3.65;;
5912;SDS011;2982;42.684;23.356;2023-10-08T01:35:47;7.45;;;3.90;;
5912;SDS011;2982;42.684;23.356;2023-10-08T01:38:13;3.92;;;3.55;;
5912;SDS011;2982;42.684;23.356;2023-10-08T01:40:39;3.97;;;3.55;;
5912;SDS011;2982;42.684;23.356;2023-10-08T01:43:07;4.32;;;3.72;;
5912;SDS011;2982;42.684;23.356;2023-10-08T01:45:35;6.47;;;3.63;;
5912;SDS011;2982;42.684;23.356;2023-10-08T01:48:01;4.05;;;3.33;;
5912;SDS011;2982;42.684;23.356;2023-10-08T01:50:27;7.63;;;3.67;;
5912;SDS011;2982;42.684;23.356;2023-10-08T01:52:52;6.35;;;3.95;;
5912;SDS011;2982;42.684;23.356;2023-10-08T01:55:17;3.33;;;2.83;;
5912;SDS011;2982;42.684;23.356;2023-10-08T01:57:43;6.10;;;4.10;;
5912;SDS011;2982;42.684;23.356;2023-10-08T02:00:12;6.53;;;3.50;;
5912;SDS011;2982;42.684;23.356;2023-10-08T02:02:38;4.53;;;3.30;;
5912;SDS011;2982;42.684;23.356;2023-10-08T02:05:03;3.95;;;3.40;;
5912;SDS011;2982;42.684;23.356;2023-10-08T02:07:29;4.82;;;3.00;;
5912;SDS011;2982;42.684;23.356;2023-10-08T02:09:54;7.22;;;3.20;;
5912;SDS011;2982;42.684;23.356;2023-10-08T02:12:19;7.00;;;3.35;;
5912;SDS011;2982;42.684;23.356;2023-10-08T02:14:44;5.05;;;3.60;;
5912;SDS011;2982;42.684;23.356;2023-10-08T02:17:10;5.45;;;2.92;;
5912;SDS011;2982;42.684;23.356;2023-10-08T02:19:35;4.70;;;3.20;;
5912;SDS011;2982;42.684;23.356;2023-10-08T02:22:00;6.45;;;3.20;;
5912;SDS011;2982;42.684;23.356;2023-10-08T02:24:26;5.63;;;3.20;;
5912;SDS011;2982;42.684;23.356;2023-10-08T02:26:51;8.45;;;3.83;;
5912;SDS011;2982;42.684;23.356;2023-10-08T02:29:17;6.85;;;3.70;;
5912;SDS011;2982;42.684;23.356;2023-10-08T02:31:42;2.67;;;2.45;;
5912;SDS011;2982;42.684;23.356;2023-10-08T02:34:08;7.38;;;3.90;;
5912;SDS011;2982;42.684;23.356;2023-10-08T02:36:34;5.88;;;3.90;;
5912;SDS011;2982;42.684;23.356;2023-10-08T02:39:04;4.47;;;3.03;;
5912;SDS011;2982;42.684;23.356;2023-10-08T02:41:30;12.23;;;3.60;;
5912;SDS011;2982;42.684;23.356;2023-10-08T02:43:55;3.90;;;3.53;;
5912;SDS011;2982;42.684;23.356;2023-10-08T02:46:20;5.78;;;3.60;;
5912;SDS011;2982;42.684;23.356;2023-10-08T02:48:46;6.20;;;3.33;;
5912;SDS011;2982;42.684;23.356;2023-10-08T02:51:11;3.35;;;3.05;;
5912;SDS011;2982;42.684;23.356;2023-10-08T02:53:36;6.43;;;3.30;;
5912;SDS011;2982;42.684;23.356;2023-10-08T02:56:02;4.20;;;2.53;;
5912;SDS011;2982;42.684;23.356;2023-10-08T02:58:27;4.75;;;2.70;;
5912;SDS011;2982;42.684;23.356;2023-10-08T03:00:52;4.30;;;3.17;;
5912;SDS011;2982;42.684;23.356;2023-10-08T03:03:18;6.07;;;3.00;;
5912;SDS011;2982;42.684;23.356;2023-10-08T03:05:52;3.35;;;2.78;;
5912;SDS011;2982;42.684;23.356;2023-10-08T03:08:18;8.57;;;3.70;;
5912;SDS011;2982;42.684;23.356;2023-10-08T03:10:44;3.30;;;2.47;;
5912;SDS011;2982;42.684;23.356;2023-10-08T03:13:09;5.25;;;2.95;;
5912;SDS011;2982;42.684;23.356;2023-10-08T03:15:35;7.20;;;2.33;;
5912;SDS011;2982;42.684;23.356;2023-10-08T03:18:00;3.55;;;2.53;;
5912;SDS011;2982;42.684;23.356;2023-10-08T03:20:26;4.53;;;3.13;;
5912;SDS011;2982;42.684;23.356;2023-10-08T03:22:51;6.22;;;3.50;;
5912;SDS011;2982;42.684;23.356;2023-10-08T03:25:25;5.82;;;3.50;;
5912;SDS011;2982;42.684;23.356;2023-10-08T04:55:47;11.23;;;4.82;;
5912;SDS011;2982;42.684;23.356;2023-10-08T04:58:55;7.63;;;4.75;;
5912;SDS011;2982;42.684;23.356;2023-10-08T05:14:20;11.57;;;5.15;;
5912;SDS011;2982;42.684;23.356;2023-10-08T05:17:07;11.02;;;4.95;;
5912;SDS011;2982;42.684;23.356;2023-10-08T05:20:21;8.02;;;4.80;;
5912;SDS011;2982;42.684;23.356;2023-10-08T05:46:29;10.48;;;5.18;;
5912;SDS011;2982;42.684;23.356;2023-10-08T06:54:24;8.60;;;5.90;;
5912;SDS011;2982;42.684;23.356;2023-10-08T06:57:20;10.43;;;4.38;;
5912;SDS011;2982;42.684;23.356;2023-10-08T07:03:00;8.38;;;4.88;;
5912;SDS011;2982;42.684;23.356;2023-10-08T07:05:52;7.13;;;4.70;;
5912;SDS011;2982;42.684;23.356;2023-10-08T07:13:39;5.63;;;4.20;;
5912;SDS011;2982;42.684;23.356;2023-10-08T07:16:05;6.55;;;4.18;;
5912;SDS011;2982;42.684;23.356;2023-10-08T07:19:11;8.23;;;4.88;;
5912;SDS011;2982;42.684;23.356;2023-10-08T07:21:38;10.20;;;4.60;;
5912;SDS011;2982;42.684;23.356;2023-10-08T07:24:26;6.82;;;4.40;;
5912;SDS011;2982;42.684;23.356;2023-10-08T07:27:29;8.88;;;5.32;;
5912;SDS011;2982;42.684;23.356;2023-10-08T07:30:18;6.05;;;4.63;;
5912;SDS011;2982;42.684;23.356;2023-10-08T07:33:25;8.30;;;5.07;;
5912;SDS011;2982;42.684;23.356;2023-10-08T07:35:51;12.13;;;4.68;;
5912;SDS011;2982;42.684;23.356;2023-10-08T07:38:38;10.40;;;4.60;;
5912;SDS011;2982;42.684;23.356;2023-10-08T07:41:43;8.40;;;5.05;;
5912;SDS011;2982;42.684;23.356;2023-10-08T11:29:48;4.95;;;2.20;;
5912;SDS011;2982;42.684;23.356;2023-10-08T11:32:16;4.57;;;2.17;;
5912;SDS011;2982;42.684;23.356;2023-10-08T11:35:02;5.55;;;1.98;;
5912;SDS011;2982;42.684;23.356;2023-10-08T11:38:08;3.50;;;2.28;;
5912;SDS011;2982;42.684;23.356;2023-10-08T11:40:54;3.40;;;2.13;;
5912;SDS011;2982;42.684;23.356;2023-10-08T13:30:28;3.70;;;1.90;;
5912;SDS011;2982;42.684;23.356;2023-10-08T14:25:03;4.18;;;2.28;;
5912;SDS011;2982;42.684;23.356;2023-10-08T14:38:17;7.47;;;3.08;;
5912;SDS011;2982;42.684;23.356;2023-10-08T14:53:52;12.10;;;2.55;;
5912;SDS011;2982;42.684;23.356;2023-10-08T14:56:19;7.75;;;2.25;;
5912;SDS011;2982;42.684;23.356;2023-10-08T15:06:31;6.43;;;2.20;;
5912;SDS011;2982;42.684;23.356;2023-10-08T15:09:17;7.47;;;2.58;;
5912;SDS011;2982;42.684;23.356;2023-10-08T15:14:41;9.43;;;2.38;;
5912;SDS011;2982;42.684;23.356;2023-10-08T15:17:30;3.95;;;1.90;;
5912;SDS011;2982;42.684;23.356;2023-10-08T15:19:56;5.53;;;2.42;;
5912;SDS011;2982;42.684;23.356;2023-10-08T15:22:24;7.10;;;2.85;;
5912;SDS011;2982;42.684;23.356;2023-10-08T15:25:32;4.70;;;2.33;;
5912;SDS011;2982;42.684;23.356;2023-10-08T15:36:27;6.25;;;1.60;;
5912;SDS011;2982;42.684;23.356;2023-10-08T15:38:55;4.28;;;2.40;;
5912;SDS011;2982;42.684;23.356;2023-10-08T15:42:04;8.23;;;2.40;;
5912;SDS011;2982;42.684;23.356;2023-10-08T16:08:05;6.57;;;2.58;;
5912;SDS011;2982;42.684;23.356;2023-10-08T16:10:37;3.50;;;2.88;;
5912;SDS011;2982;42.684;23.356;2023-10-08T16:13:31;4.30;;;2.42;;
5912;SDS011;2982;42.684;23.356;2023-10-08T16:16:17;4.82;;;2.83;;
5912;SDS011;2982;42.684;23.356;2023-10-08T16:19:19;7.10;;;2.28;;
5912;SDS011;2982;42.684;23.356;2023-10-08T16:22:03;6.63;;;2.63;;
5912;SDS011;2982;42.684;23.356;2023-10-08T16:32:35;8.63;;;3.13;;
5912;SDS011;2982;42.684;23.356;2023-10-08T16:35:22;5.25;;;2.45;;
5912;SDS011;2982;42.684;23.356;2023-10-08T16:40:38;4.82;;;2.28;;
5912;SDS011;2982;42.684;23.356;2023-10-08T16:43:23;3.95;;;2.00;;
5912;SDS011;2982;42.684;23.356;2023-10-08T16:46:13;4.90;;;1.98;;
5912;SDS011;2982;42.684;23.356;2023-10-08T16:58:54;7.95;;;2.90;;
5912;SDS011;2982;42.684;23.356;2023-10-08T17:01:20;9.00;;;2.58;;
5912;SDS011;2982;42.684;23.356;2023-10-08T17:03:54;7.38;;;2.60;;
5912;SDS011;2982;42.684;23.356;2023-10-08T17:06:43;5.28;;;2.58;;
5912;SDS011;2982;42.684;23.356;2023-10-08T17:09:38;7.80;;;2.72;;
5912;SDS011;2982;42.684;23.356;2023-10-08T17:12:06;5.68;;;2.80;;
5912;SDS011;2982;42.684;23.356;2023-10-08T17:15:11;5.05;;;2.35;;
5912;SDS011;2982;42.684;23.356;2023-10-08T17:18:02;7.18;;;2.90;;
5912;SDS011;2982;42.684;23.356;2023-10-08T17:21:10;8.40;;;2.85;;
5912;SDS011;2982;42.684;23.356;2023-10-08T17:23:53;6.10;;;3.72;;
5912;SDS011;2982;42.684;23.356;2023-10-08T17:26:57;5.82;;;2.60;;
5912;SDS011;2982;42.684;23.356;2023-10-08T17:40:24;9.18;;;3.03;;
5912;SDS011;2982;42.684;23.356;2023-10-08T17:43:16;15.30;;;2.80;;
5912;SDS011;2982;42.684;23.356;2023-10-08T17:46:15;10.23;;;2.55;;
5912;SDS011;2982;42.684;23.356;2023-10-08T22:02:34;6.30;;;1.67;;
5912;SDS011;2982;42.684;23.356;2023-10-08T22:05:09;7.63;;;1.58;;
5912;SDS011;2982;42.684;23.356;2023-10-08T22:07:34;6.93;;;1.60;;
5912;SDS011;2982;42.684;23.356;2023-10-08T22:09:59;6.40;;;1.60;;
5912;SDS011;2982;42.684;23.356;2023-10-08T22:12:25;6.57;;;2.25;;
5912;SDS011;2982;42.684;23.356;2023-10-08T22:14:50;7.68;;;1.80;;
5912;SDS011;2982;42.684;23.356;2023-10-08T22:17:15;5.70;;;1.70;;
5912;SDS011;2982;42.684;23.356;2023-10-08T22:19:41;7.75;;;2.22;;
5912;SDS011;2982;42.684;23.356;2023-10-08T22:22:06;6.97;;;2.03;;
5912;SDS011;2982;42.684;23.356;2023-10-08T22:24:31;7.07;;;1.40;;
5912;SDS011;2982;42.684;23.356;2023-10-08T22:26:57;6.28;;;2.13;;
5912;SDS011;2982;42.684;23.356;2023-10-08T22:29:22;6.03;;;2.25;;
5912;SDS011;2982;42.684;23.356;2023-10-08T22:31:48;3.72;;;1.80;;
5912;SDS011;2982;42.684;23.356;2023-10-08T22:34:13;6.03;;;2.65;;
5912;SDS011;2982;42.684;23.356;2023-10-08T22:36:38;6.40;;;1.52;;
5912;SDS011;2982;42.684;23.356;2023-10-08T22:39:04;6.25;;;1.63;;
5912;SDS011;2982;42.684;23.356;2023-10-08T22:41:29;9.90;;;2.13;;
5912;SDS011;2982;42.684;23.356;2023-10-08T22:43:54;9.95;;;1.65;;
5912;SDS011;2982;42.684;23.356;2023-10-08T22:46:20;7.78;;;1.95;;
5912;SDS011;2982;42.684;23.356;2023-10-08T22:48:45;3.50;;;1.58;;
5912;SDS011;2982;42.684;23.356;2023-10-08T22:51:11;6.47;;;1.80;;
5912;SDS011;2982;42.684;23.356;2023-10-08T22:53:40;4.93;;;1.50;;
5912;SDS011;2982;42.684;23.356;2023-10-08T22:56:05;3.47;;;1.48;;
5912;SDS011;2982;42.684;23.356;2023-10-08T22:58:31;4.70;;;1.42;;
5912;SDS011;2982;42.684;23.356;2023-10-08T23:00:56;4.25;;;2.10;;
5912;SDS011;2982;42.684;23.356;2023-10-08T23:03:22;8.27;;;2.50;;
5912;SDS011;2982;42.684;23.356;2023-10-08T23:05:47;8.27;;;2.05;;
5912;SDS011;2982;42.684;23.356;2023-10-08T23:08:13;7.95;;;2.38;;
5912;SDS011;2982;42.684;23.356;2023-10-08T23:10:38;4.95;;;1.55;;
5912;SDS011;2982;42.684;23.356;2023-10-08T23:13:03;4.25;;;1.77;;
5912;SDS011;2982;42.684;23.356;2023-10-08T23:15:29;7.38;;;2.35;;
5912;SDS011;2982;42.684;23.356;2023-10-08T23:17:54;8.50;;;1.48;;
5912;SDS011;2982;42.684;23.356;2023-10-08T23:20:19;4.60;;;1.73;;
5912;SDS011;2982;42.684;23.356;2023-10-08T23:22:45;3.95;;;1.88;;
5912;SDS011;2982;42.684;23.356;2023-10-08T23:25:10;11.85;;;1.75;;
5912;SDS011;2982;42.684;23.356;2023-10-08T23:27:35;14.10;;;1.65;;
5912;SDS011;2982;42.684;23.356;2023-10-08T23:30:01;4.80;;;1.58;;
5912;SDS011;2982;42.684;23.356;2023-10-08T23:32:26;4.97;;;1.80;;
5912;SDS011;2982;42.684;23.356;2023-10-08T23:34:51;7.35;;;1.58;;
5912;SDS011;2982;42.684;23.356;2023-10-08T23:37:17;5.25;;;1.42;;
5912;SDS011;2982;42.684;23.356;2023-10-08T23:39:42;5.20;;;1.58;;
5912;SDS011;2982;42.684;23.356;2023-10-08T23:42:07;5.05;;;1.88;;
5912;SDS011;2982;42.684;23.356;2023-10-08T23:44:32;2.00;;;1.60;;
5912;SDS011;2982;42.684;23.356;2023-10-08T23:46:58;16.33;;;3.03;;
5912;SDS011;2982;42.684;23.356;2023-10-08T23:49:23;2.30;;;1.80;;
5912;SDS011;2982;42.684;23.356;2023-10-08T23:51:48;4.03;;;2.22;;
5912;SDS011;2982;42.684;23.356;2023-10-08T23:54:14;8.13;;;1.88;;
5912;SDS011;2982;42.684;23.356;2023-10-08T23:56:39;3.97;;;1.55;;
5912;SDS011;2982;42.684;23.356;2023-10-08T23:59:05;5.13;;;1.77;;
